KPVJ

Details ICAO KPVJ
Name PAULS VALLEY MUNI
Region United States
Timezone America/Chicago (UTC-6.0)
Plans Departing 0
Arriving 0
Stats Elevation 968 ft / 295 m (AMSL)
Location 34.709932° -97.223189°
Runways 2
Magnetic Variation 3.539° E
Sunrise 2017-12-18 13:32:08 UTC / 2017-12-18 07:32:08 Local
Sunset 2017-12-18 23:21:50 UTC / 2017-12-18 17:21:50 Local
Advertisement - Login to hide

Runways

ID Width Length Bearing (true) Bearing (mag) Surface Threshold Offset Overrun Length
12 150 ft / 46 m 3,500 ft / 1,067 m 135.20° 131.66° Concrete 0 ft / 0 m 0 ft / 0 m
17 100 ft / 30 m 5,012 ft / 1,528 m 180.00° 176.46° Concrete 0 ft / 0 m 0 ft / 0 m
30 150 ft / 46 m 3,500 ft / 1,067 m 315.20° 311.66° Concrete 0 ft / 0 m 0 ft / 0 m
35 100 ft / 30 m 5,012 ft / 1,528 m 0.00° 356.46° Concrete 0 ft / 0 m 0 ft / 0 m

Map

Weather


0- 5 10 15 20 25 30 35+ Temperature / ° C

Clouds and Precipitation
Forecast for 2017-12-18 18:00 UTC. Updated 2 hours ago

Ground ~20,000 ft ~40,000 ft Winds

METAR

KPVJ 181455Z AUTO 13003KT 3SM BR OVC004 06/06 A3019 RMK AO2 T00600060

TAF

Not found

Frequencies

Recorded 118.67 MHz AWOS 3
Unicom 122.80 MHz CTAF/UNICOM
Warning: Do not use this data for real-world aviation or navigation. No guarantee of current accuracy is given.